Estación Meteorológica Peña el Pijo (Robertgarden) [ 01/30/23 14:07:00 CET ]

Fecha Hora Presion(HPa) Temp (°C) Humedad % Rocio (°C) Viento ( m/s) Direccion Lluvia 1Hora(mm) Lluvia 24H(mm) LLuvia Total(mm)
2010-Jul-21 01:01:11 1009.800 18.3 51 8.0         130.53
2010-Jul-21 02:01:15 1009.500 18.9 44 6.3         130.53
2010-Jul-21 03:03:12 1008.900 19.1 42 5.8         130.53
2010-Jul-21 04:01:12 1008.700 19.4 42 6.1         130.53
2010-Jul-21 05:01:16 1008.600 17.5 48 6.3         130.53
2010-Jul-21 06:01:16 1008.300 15.9 54 6.6         130.53
2010-Jul-21 07:01:11 1008.600 16.6 53 7.0         130.53
2010-Jul-21 08:01:14 1008.600 16.3 58 8.0         130.53
2010-Jul-21 09:01:12 1008.900 22.2 51 11.6         130.53
2010-Jul-21 10:01:12 1008.800 27.9 37 11.8         130.53
2010-Jul-21 11:01:16 1008.900 30.3 28 9.6 0.7 SSW     130.53
2010-Jul-21 12:01:11 1008.600 32.4 25 9.6         130.53
2010-Jul-21 13:01:14 1008.200 34.5 21 8.9         130.53
2010-Jul-21 14:01:12 1007.700 36.1 20 9.7         130.53
2010-Jul-21 15:01:12 1007.800 35.2 20 8.9         130.53
2010-Jul-21 16:01:10 1007.700 34.9 20 8.6         130.53
2010-Jul-21 17:01:18 1007.600 35.4 19 8.1         130.53
2010-Jul-21 18:01:16 1007.400 34.5 19 7.3         130.53
2010-Jul-21 19:01:16 1007.400 33.4 21 8.0         130.53
2010-Jul-21 20:01:13 1007.600 31.6 25 9.0         130.53
2010-Jul-21 21:01:11 1008.000 27.8 30 8.6         130.53
2010-Jul-21 22:01:16 1008.600 24.6 37 8.9         130.53
2010-Jul-21 23:01:12 1009.400 21.3 46 9.2         130.53

Temperatura Máxima:36°    Temperatura Mínima:15°
Presión Máxima:1009.800 Hpa    Presión Mínima:1007.400 Hpa


Volver